Time;durP1;ratioP1;P1;durP2;ratioP2;P2;SDS_P1;SDS_P2;PMS_P1;PMS_P2;Temp;Humidity;BMP_temperature;BMP_pressure;BME280_temperature;BME280_humidity;BME280_pressure;Samples;Min_cycle;Max_cycle;Signal;HPM_P1;HPM_P2
2022/10/30 00:00:56;;;;;;;17.80;15.40;;;;;;;12.34;100.00;102182.63;2065283;28;20231;-61
2022/10/30 00:01:57;;;;;;;18.23;15.30;;;;;;;12.43;100.00;102193.28;2065507;28;20198;-61
2022/10/30 00:02:57;;;;;;;17.17;15.27;;;;;;;12.25;100.00;102173.16;2065784;28;20573;-61
2022/10/30 00:03:57;;;;;;;18.77;15.23;;;;;;;12.21;100.00;102164.03;2065221;28;20195;-61
2022/10/30 00:04:58;;;;;;;18.47;14.00;;;;;;;12.41;100.00;102202.03;2064494;28;20567;-61
2022/10/30 00:05:58;;;;;;;18.33;13.93;;;;;;;12.46;100.00;102198.03;2064864;28;20183;-61
2022/10/30 00:06:59;;;;;;;21.03;12.50;;;;;;;12.48;100.00;102196.44;2064028;28;20212;-60
2022/10/30 00:07:59;;;;;;;17.90;13.27;;;;;;;12.50;100.00;102196.81;2065601;28;20239;-61
2022/10/30 00:08:59;;;;;;;14.90;12.53;;;;;;;12.49;100.00;102200.00;2065004;28;20254;-60
2022/10/30 00:10:00;;;;;;;17.33;13.63;;;;;;;12.46;100.00;102196.03;2065517;28;20207;-61
2022/10/30 00:11:08;;;;;;;15.80;13.80;;;;;;;12.49;100.00;102211.13;2065473;28;20197;-60
2022/10/30 00:12:09;;;;;;;27.30;15.40;;;;;;;12.08;100.00;102124.81;2064578;28;20237;-61
2022/10/30 00:13:10;;;;;;;17.70;15.60;;;;;;;12.41;100.00;102179.78;2065596;28;20435;-61
2022/10/30 00:14:10;;;;;;;19.93;15.43;;;;;;;12.49;100.00;102200.00;2065058;28;20192;-61
2022/10/30 00:15:11;;;;;;;17.77;15.93;;;;;;;12.50;100.00;102199.59;2065333;28;20424;-61
2022/10/30 00:16:11;;;;;;;16.93;15.27;;;;;;;12.46;100.00;102184.91;2065332;28;20628;-60
2022/10/30 00:17:12;;;;;;;20.37;15.77;;;;;;;12.56;100.00;102197.97;2065082;28;20691;-61
2022/10/30 00:18:13;;;;;;;16.97;15.23;;;;;;;12.60;100.00;102204.28;2064868;28;20190;-61
2022/10/30 00:19:13;;;;;;;16.50;14.80;;;;;;;12.59;100.00;102194.38;2064717;28;20217;-60
2022/10/30 00:20:14;;;;;;;16.80;14.63;;;;;;;12.61;100.00;102196.75;2065199;28;20194;-61
2022/10/30 00:21:15;;;;;;;17.87;14.90;;;;;;;12.65;100.00;102192.72;2064796;28;20268;-60
2022/10/30 00:22:15;;;;;;;18.10;14.47;;;;;;;12.64;100.00;102193.94;2065381;28;20187;-61
2022/10/30 00:23:16;;;;;;;17.50;13.97;;;;;;;12.65;100.00;102189.19;2065081;28;20432;-60
2022/10/30 00:24:16;;;;;;;15.83;14.17;;;;;;;12.66;100.00;102188.75;2065165;28;20707;-60
2022/10/30 00:25:16;;;;;;;15.87;13.70;;;;;;;12.69;100.00;102189.91;2064964;28;20195;-61
2022/10/30 00:26:19;;;;;;;14.47;12.83;;;;;;;12.69;100.00;102174.03;2064853;28;20224;-61
2022/10/30 00:27:19;;;;;;;16.00;12.50;;;;;;;12.69;100.00;102173.22;2059913;28;20175;-60
2022/10/30 00:28:20;;;;;;;13.87;12.47;;;;;;;12.72;100.00;102175.19;2065078;28;20430;-60
2022/10/30 00:29:25;;;;;;;17.30;12.23;;;;;;;12.73;100.00;102174.81;2064076;28;20256;-60
2022/10/30 00:30:25;;;;;;;13.73;11.47;;;;;;;11.96;100.00;102080.03;2064756;28;20182;-60
2022/10/30 00:31:26;;;;;;;12.53;10.97;;;;;;;12.73;100.00;102168.44;2063901;28;20445;-61
2022/10/30 00:32:27;;;;;;;14.13;11.27;;;;;;;12.69;100.00;102165.69;2064873;28;20227;-60
2022/10/30 00:33:27;;;;;;;14.23;12.63;;;;;;;12.68;100.00;102169.66;2059531;28;20210;-61
2022/10/30 00:34:28;;;;;;;15.83;11.37;;;;;;;12.68;100.00;102177.22;2063404;28;20817;-60
2022/10/30 00:35:29;;;;;;;16.40;13.17;;;;;;;11.93;100.00;102058.66;2057614;28;20179;-60
2022/10/30 00:36:30;;;;;;;15.53;13.10;;;;;;;12.27;100.00;102115.16;2065053;28;20564;-60
2022/10/30 00:37:31;;;;;;;14.80;13.30;;;;;;;12.68;100.00;102174.44;2064994;28;20556;-60
2022/10/30 00:38:31;;;;;;;15.77;14.17;;;;;;;12.70;100.00;102178.38;2064991;28;20474;-60
2022/10/30 00:39:32;;;;;;;18.77;13.63;;;;;;;12.69;100.00;102182.38;2065215;28;20606;-61
2022/10/30 00:40:33;;;;;;;17.03;14.50;;;;;;;12.44;100.00;102137.28;2065061;28;20209;-61
2022/10/30 00:41:33;;;;;;;16.30;12.17;;;;;;;12.63;100.00;102169.31;2065072;28;20193;-61
2022/10/30 00:42:34;;;;;;;15.37;11.43;;;;;;;12.70;100.00;102170.03;2064966;28;20601;-62
2022/10/30 00:43:38;;;;;;;17.03;11.90;;;;;;;12.70;100.00;102169.28;2059047;28;20183;-61
2022/10/30 00:44:51;;;;;;;15.73;12.77;;;;;;;12.64;100.00;102165.31;2062857;28;20191;-60
2022/10/30 00:45:52;;;;;;;14.50;12.33;;;;;;;12.62;100.00;102171.31;2065198;28;20935;-61
2022/10/30 00:46:53;;;;;;;14.77;12.40;;;;;;;12.61;100.00;102169.72;2062350;28;20899;-60
2022/10/30 00:48:01;;;;;;;16.13;12.60;;;;;;;12.13;100.00;102093.00;2064937;28;20608;-61
2022/10/30 00:49:16;;;;;;;15.97;12.70;;;;;;;12.51;100.00;102178.91;2063817;28;20190;-61
2022/10/30 00:50:27;;;;;;;15.30;13.53;;;;;;;12.43;100.00;102171.03;2065025;28;20422;-60
2022/10/30 00:51:29;;;;;;;15.33;12.77;;;;;;;12.31;100.00;102177.09;2064795;28;20531;-61
2022/10/30 00:52:34;;;;;;;14.90;13.07;;;;;;;12.34;100.00;102176.28;2064134;28;20426;-61
2022/10/30 00:53:35;;;;;;;16.07;14.37;;;;;;;12.34;100.00;102174.28;2060593;28;20579;-61
2022/10/30 00:54:36;;;;;;;15.73;13.43;;;;;;;11.67;100.00;102073.06;2057630;28;20442;-60
2022/10/30 00:55:41;;;;;;;15.73;12.73;;;;;;;12.35;100.00;102175.09;2064786;28;20286;-61
2022/10/30 00:56:42;;;;;;;17.10;13.43;;;;;;;12.33;100.00;102167.16;2060900;28;20229;-60
2022/10/30 00:57:43;;;;;;;15.20;13.63;;;;;;;12.33;100.00;102169.13;2063250;28;21038;-61
2022/10/30 00:58:50;;;;;;;16.23;13.43;;;;;;;12.33;100.00;102167.16;2064791;28;20574;-60
2022/10/30 00:59:51;;;;;;;15.00;13.37;;;;;;;12.33;100.00;102167.16;2064080;28;20414;-60
2022/10/30 01:00:56;;;;;;;17.63;13.20;;;;;;;12.27;100.00;102165.19;2065270;28;20819;-61
2022/10/30 01:01:56;;;;;;;17.37;13.63;;;;;;;11.83;100.00;102104.72;2063460;28;20434;-61
2022/10/30 01:02:57;;;;;;;18.17;12.47;;;;;;;12.23;100.00;102162.44;2065080;28;20464;-61
2022/10/30 01:04:00;;;;;;;15.87;13.23;;;;;;;12.14;100.00;102148.19;2063834;28;20224;-61
2022/10/30 01:05:02;;;;;;;15.30;12.93;;;;;;;12.25;100.00;102157.25;2065159;28;20637;-61
2022/10/30 01:06:06;;;;;;;14.07;12.57;;;;;;;12.24;100.00;102155.69;2060875;28;20450;-60
2022/10/30 01:07:14;;;;;;;14.83;12.73;;;;;;;12.21;100.00;102161.25;2064736;28;20444;-62
2022/10/30 01:08:15;;;;;;;14.50;12.67;;;;;;;12.21;100.00;102161.25;2064699;28;20536;-61
2022/10/30 01:09:15;;;;;;;18.03;13.13;;;;;;;12.22;100.00;102157.28;2064843;28;20421;-61
2022/10/30 01:10:16;;;;;;;14.20;12.23;;;;;;;12.23;100.00;102151.31;2064857;28;20278;-61
2022/10/30 01:11:17;;;;;;;13.73;12.33;;;;;;;12.25;100.00;102142.59;2065017;28;20224;-61
2022/10/30 01:12:17;;;;;;;14.30;12.53;;;;;;;12.21;100.00;102150.94;2065162;28;20433;-61
2022/10/30 01:13:20;;;;;;;15.23;12.37;;;;;;;12.22;100.00;102144.19;2064843;28;20217;-61
2022/10/30 01:14:20;;;;;;;15.83;11.83;;;;;;;12.22;100.00;102140.59;2062282;28;20245;-61
2022/10/30 01:15:29;;;;;;;14.40;12.80;;;;;;;12.14;100.00;102120.41;2064797;28;20488;-61
2022/10/30 01:16:54;;;;;;;14.80;12.40;;;;;;;12.20;100.00;102134.69;2063233;28;20213;-61
2022/10/30 01:18:15;;;;;;;15.40;13.17;;;;;;;12.17;100.00;102135.47;2063356;28;20527;-61
2022/10/30 01:19:32;;;;;;;15.17;12.53;;;;;;;12.16;100.00;102129.16;2064654;28;20939;-61
2022/10/30 01:20:44;;;;;;;17.23;12.87;;;;;;;12.15;100.00;102121.97;2057223;28;20421;-61
2022/10/30 01:22:10;;;;;;;16.07;12.87;;;;;;;12.14;100.00;102133.53;2064469;28;20568;-61
2022/10/30 01:23:19;;;;;;;14.33;12.50;;;;;;;12.13;100.00;102127.16;2064578;28;20433;-61
2022/10/30 01:24:35;;;;;;;16.93;13.87;;;;;;;12.14;100.00;102123.19;2064562;28;20414;-61
2022/10/30 01:25:39;;;;;;;13.80;12.30;;;;;;;12.13;100.00;102127.16;2064969;28;20880;-60
2022/10/30 01:26:51;;;;;;;13.97;12.07;;;;;;;12.01;100.00;102112.94;2064518;28;20457;-61
2022/10/30 01:28:06;;;;;;;16.13;12.53;;;;;;;12.12;100.00;102133.13;2063543;28;20446;-61
2022/10/30 01:29:24;;;;;;;14.93;12.50;;;;;;;12.13;100.00;102126.38;2064850;28;20444;-61
2022/10/30 01:30:25;;;;;;;14.23;12.50;;;;;;;12.10;100.00;102127.19;2061755;28;20434;-60
2022/10/30 01:31:40;;;;;;;14.87;12.57;;;;;;;12.08;100.00;102129.56;2062425;28;20477;-60
2022/10/30 01:33:11;;;;;;;14.03;12.53;;;;;;;12.06;100.00;102127.22;2064925;28;20656;-61
2022/10/30 01:34:22;;;;;;;14.77;12.67;;;;;;;12.06;100.00;102121.66;2063710;28;20919;-61
2022/10/30 01:35:31;;;;;;;15.47;13.13;;;;;;;11.90;100.00;102095.56;2064744;28;20417;-60
2022/10/30 01:37:21;;;;;;;14.80;13.30;;;;;;;12.03;100.00;102128.03;2064344;28;20448;-60
2022/10/30 01:38:49;;;;;;;20.10;13.50;;;;;;;12.00;100.00;102142.72;2053850;28;20560;-61
2022/10/30 01:39:49;;;;;;;15.27;12.90;;;;;;;11.98;100.00;102138.75;2064237;28;20951;-61
2022/10/30 01:40:50;;;;;;;15.77;12.87;;;;;;;11.95;100.00;102137.59;2064487;28;20863;-61
2022/10/30 01:41:50;;;;;;;15.93;12.60;;;;;;;11.94;100.00;102141.56;2063649;28;20190;-60
2022/10/30 01:42:54;;;;;;;15.70;12.90;;;;;;;11.92;100.00;102145.94;2064653;28;20197;-60
2022/10/30 01:44:00;;;;;;;16.13;13.83;;;;;;;11.12;100.00;102036.81;2063323;28;20189;-60
2022/10/30 01:45:01;;;;;;;15.97;14.13;;;;;;;11.81;100.00;102143.22;2064289;28;20432;-60
2022/10/30 01:46:35;;;;;;;18.03;13.60;;;;;;;11.81;100.00;102145.22;2064263;28;20487;-60
2022/10/30 01:47:38;;;;;;;15.93;13.77;;;;;;;11.81;100.00;102143.22;2064642;28;20448;-60
2022/10/30 01:48:49;;;;;;;15.07;13.37;;;;;;;11.57;100.00;102101.63;2064682;28;20461;-60
2022/10/30 01:50:13;;;;;;;16.30;14.03;;;;;;;11.80;100.00;102133.31;2064608;28;20486;-60
2022/10/30 01:51:31;;;;;;;15.17;12.93;;;;;;;11.78;100.00;102130.16;2063054;28;20479;-60
2022/10/30 01:52:59;;;;;;;18.37;12.37;;;;;;;11.79;100.00;102130.94;2062583;28;20448;-60
2022/10/30 01:54:11;;;;;;;15.67;13.30;;;;;;;11.79;100.00;102125.38;2059819;28;20849;-60
2022/10/30 01:55:46;;;;;;;14.27;12.43;;;;;;;11.80;100.00;102124.19;2063309;28;20456;-60
2022/10/30 01:56:59;;;;;;;16.77;12.27;;;;;;;11.76;100.00;102118.66;2064156;28;20452;-60
2022/10/30 01:58:18;;;;;;;16.60;12.33;;;;;;;11.75;100.00;102127.38;2062744;28;20855;-60
2022/10/30 01:59:31;;;;;;;17.03;13.53;;;;;;;11.77;100.00;102125.78;2064242;28;20445;-61
2022/10/30 02:00:32;;;;;;;16.10;12.57;;;;;;;11.67;100.00;102106.38;2061115;28;20456;-60
2022/10/30 02:01:35;;;;;;;15.67;11.83;;;;;;;11.77;100.00;102122.22;2064473;28;20948;-60
2022/10/30 02:02:36;;;;;;;14.27;12.63;;;;;;;11.77;100.00;102113.88;2060853;28;20198;-61
2022/10/30 02:03:37;;;;;;;15.13;12.33;;;;;;;11.74;100.00;102112.69;2062935;28;20548;-60
2022/10/30 02:04:38;;;;;;;14.57;13.10;;;;;;;11.75;100.00;102110.72;2064170;28;20193;-60
2022/10/30 02:05:46;;;;;;;15.60;13.33;;;;;;;11.72;100.00;102123.44;2064277;28;20517;-60
2022/10/30 02:06:47;;;;;;;14.90;12.80;;;;;;;11.71;100.00;102112.72;2061887;28;20239;-61
2022/10/30 02:07:47;;;;;;;15.73;12.60;;;;;;;11.69;100.00;102109.56;2064179;28;20425;-61
2022/10/30 02:08:47;;;;;;;17.20;13.13;;;;;;;11.71;100.00;102107.97;2064385;28;20212;-61
2022/10/30 02:09:50;;;;;;;13.53;12.13;;;;;;;11.71;100.00;102104.38;2064545;28;20194;-61
2022/10/30 02:10:52;;;;;;;14.63;12.97;;;;;;;11.71;100.00;102107.97;2064658;28;20217;-60
2022/10/30 02:11:54;;;;;;;16.20;12.57;;;;;;;11.72;100.00;102109.53;2064438;28;20433;-60
2022/10/30 02:12:55;;;;;;;15.07;12.23;;;;;;;11.70;100.00;102111.94;2064635;28;20972;-60
2022/10/30 02:13:56;;;;;;;16.00;13.10;;;;;;;11.69;100.00;102107.56;2064381;28;20830;-61
2022/10/30 02:14:59;;;;;;;18.53;13.73;;;;;;;11.68;100.00;102106.00;2060731;28;20182;-61
2022/10/30 02:15:59;;;;;;;17.50;13.30;;;;;;;11.69;100.00;102107.56;2061709;28;20451;-60
2022/10/30 02:17:02;;;;;;;15.73;13.57;;;;;;;11.71;100.00;102101.59;2064144;28;20413;-61
2022/10/30 02:18:04;;;;;;;15.70;13.47;;;;;;;11.53;100.00;102075.91;2061521;28;20296;-60
2022/10/30 02:19:06;;;;;;;15.80;14.10;;;;;;;11.71;100.00;102102.41;2064566;28;20456;-60
2022/10/30 02:20:13;;;;;;;19.60;13.70;;;;;;;11.44;100.00;102061.66;2064489;28;20865;-60
2022/10/30 02:21:14;;;;;;;15.33;13.73;;;;;;;11.73;100.00;102096.47;2063024;28;20800;-61
2022/10/30 02:22:16;;;;;;;15.83;13.67;;;;;;;11.72;100.00;102097.63;2063922;28;20516;-61
2022/10/30 02:23:18;;;;;;;17.60;13.90;;;;;;;11.71;100.00;102096.84;2064068;28;20441;-60
2022/10/30 02:24:19;;;;;;;18.30;15.73;;;;;;;11.70;100.00;102095.28;2063849;28;20464;-61
2022/10/30 02:25:19;;;;;;;18.03;15.77;;;;;;;11.69;100.00;102098.47;2064451;28;20519;-60
2022/10/30 02:26:20;;;;;;;18.77;16.40;;;;;;;11.69;100.00;102099.22;2063850;28;20433;-60
2022/10/30 02:27:20;;;;;;;19.83;16.43;;;;;;;11.69;100.00;102099.22;2062836;28;20201;-61
2022/10/30 02:28:21;;;;;;;23.07;17.30;;;;;;;11.59;100.00;102083.41;2062324;28;20201;-61
2022/10/30 02:29:21;;;;;;;21.13;16.40;;;;;;;11.71;100.00;102093.28;2064336;28;20638;-61
2022/10/30 02:30:21;;;;;;;21.50;16.00;;;;;;;11.69;100.00;102093.69;2064108;28;20191;-60
2022/10/30 02:31:22;;;;;;;17.77;14.63;;;;;;;11.70;100.00;102088.94;2064514;28;20217;-60
2022/10/30 02:32:22;;;;;;;16.40;13.60;;;;;;;11.69;100.00;102090.91;2064108;28;20285;-60
2022/10/30 02:33:23;;;;;;;16.93;13.00;;;;;;;11.22;100.00;102015.78;2064338;28;20186;-60
2022/10/30 02:34:24;;;;;;;15.03;11.60;;;;;;;11.68;100.00;102091.31;2063524;28;20186;-60
2022/10/30 02:35:24;;;;;;;16.50;12.43;;;;;;;11.65;100.00;102098.47;2064621;28;20193;-60
2022/10/30 02:36:25;;;;;;;13.97;11.93;;;;;;;11.68;100.00;102092.09;2062607;28;20672;-60
2022/10/30 02:37:26;;;;;;;16.43;12.20;;;;;;;11.65;100.00;102092.94;2060943;28;20302;-60
2022/10/30 02:38:26;;;;;;;16.63;13.10;;;;;;;11.64;100.00;102093.31;2062543;28;20252;-60
2022/10/30 02:39:27;;;;;;;18.67;13.10;;;;;;;11.63;100.00;102098.06;2064210;28;20527;-61
2022/10/30 02:40:27;;;;;;;21.73;14.33;;;;;;;11.64;100.00;102090.56;2064185;28;20300;-60
2022/10/30 02:41:27;;;;;;;20.13;14.73;;;;;;;11.62;100.00;102090.94;2064438;28;20217;-61
2022/10/30 02:42:28;;;;;;;17.23;14.73;;;;;;;11.39;100.00;102065.66;2064052;28;20255;-61
2022/10/30 02:43:28;;;;;;;15.27;12.73;;;;;;;11.57;100.00;102084.97;2063859;28;20186;-60
2022/10/30 02:44:29;;;;;;;14.40;11.13;;;;;;;11.53;100.00;102087.78;2063821;28;20200;-60
2022/10/30 02:45:29;;;;;;;19.00;12.60;;;;;;;11.52;100.00;102080.66;2061451;28;20244;-60
2022/10/30 02:46:30;;;;;;;13.63;11.60;;;;;;;11.51;100.00;102084.63;2063106;28;20607;-61
2022/10/30 02:47:30;;;;;;;19.03;13.13;;;;;;;11.51;100.00;102078.28;2064182;28;20200;-61
2022/10/30 02:48:31;;;;;;;14.97;12.40;;;;;;;11.47;100.00;102080.28;2064498;28;20290;-61
2022/10/30 02:49:32;;;;;;;18.97;12.97;;;;;;;11.41;100.00;102079.09;2064270;28;20667;-60
2022/10/30 02:50:32;;;;;;;16.37;12.77;;;;;;;11.06;100.00;102024.53;2064283;28;20892;-61
2022/10/30 02:51:33;;;;;;;16.03;13.90;;;;;;;11.34;100.00;102076.38;2063575;28;20599;-60
2022/10/30 02:52:33;;;;;;;17.63;13.27;;;;;;;11.32;100.00;102078.78;2064174;28;20666;-61
2022/10/30 02:53:34;;;;;;;16.27;13.67;;;;;;;11.33;100.00;102067.25;2064635;28;20195;-60
2022/10/30 02:54:35;;;;;;;15.17;13.57;;;;;;;11.28;100.00;102072.44;2064120;28;20592;-61
2022/10/30 02:55:35;;;;;;;16.97;14.10;;;;;;;11.31;100.00;102079.94;2064648;28;20194;-61
2022/10/30 02:56:35;;;;;;;15.00;13.27;;;;;;;9.99;100.00;101877.50;2066079;28;20217;-61
2022/10/30 02:57:36;;;;;;;19.20;13.50;;;;;;;11.26;100.00;102075.59;2065797;28;20617;-61
2022/10/30 02:58:36;;;;;;;18.97;13.97;;;;;;;11.27;100.00;102081.97;2063928;28;20183;-61
2022/10/30 02:59:37;;;;;;;17.87;13.20;;;;;;;11.27;100.00;102074.41;2066012;28;20269;-61
2022/10/30 03:00:37;;;;;;;15.40;13.83;;;;;;;11.24;100.00;102071.66;2065783;28;20217;-61
2022/10/30 03:01:38;;;;;;;16.00;13.87;;;;;;;11.29;100.00;102085.13;2065941;28;20214;-60
2022/10/30 03:02:38;;;;;;;15.37;12.90;;;;;;;11.28;100.00;102084.31;2065620;28;20198;-60
2022/10/30 03:03:39;;;;;;;17.13;13.37;;;;;;;11.26;100.00;102085.91;2065919;28;20201;-61
2022/10/30 03:04:40;;;;;;;25.03;14.83;;;;;;;11.24;100.00;102082.75;2065725;28;20679;-61
2022/10/30 03:05:40;;;;;;;29.50;14.43;;;;;;;11.24;100.00;102086.34;2065522;28;20808;-61
2022/10/30 03:06:41;;;;;;;24.77;14.43;;;;;;;11.22;100.00;102082.38;2063883;28;20217;-61
2022/10/30 03:07:41;;;;;;;29.90;13.80;;;;;;;11.14;100.00;102076.06;2065956;28;20656;-60
2022/10/30 03:08:42;;;;;;;24.67;13.83;;;;;;;11.14;100.00;102076.06;2064619;28;20264;-60
2022/10/30 03:09:43;;;;;;;26.73;13.47;;;;;;;11.13;100.00;102076.44;2062501;28;20197;-60
2022/10/30 03:10:43;;;;;;;21.37;13.90;;;;;;;11.12;100.00;102080.44;2063367;28;20450;-61
2022/10/30 03:11:44;;;;;;;22.50;14.10;;;;;;;11.08;100.00;102079.63;2065698;28;20703;-61
2022/10/30 03:12:44;;;;;;;21.17;14.67;;;;;;;10.16;100.00;101934.88;2064998;28;20196;-61
2022/10/30 03:13:46;;;;;;;22.10;16.47;;;;;;;10.58;100.00;102000.50;2065225;28;20194;-61
2022/10/30 03:14:46;;;;;;;21.90;14.93;;;;;;;11.08;100.00;102077.66;2065346;28;20201;-61
2022/10/30 03:15:47;;;;;;;28.00;15.10;;;;;;;10.63;100.00;102013.97;2066059;28;20449;-61
2022/10/30 03:16:47;;;;;;;22.00;12.90;;;;;;;11.03;100.00;102080.03;2065838;28;20277;-62
2022/10/30 03:17:51;;;;;;;27.53;16.17;;;;;;;10.99;100.00;102079.25;2062828;28;20222;-61
2022/10/30 03:18:52;;;;;;;22.17;16.07;;;;;;;10.99;100.00;102079.25;2065345;28;20192;-60
2022/10/30 03:19:52;;;;;;;21.17;13.77;;;;;;;10.67;100.00;102025.84;2065806;28;20962;-60
2022/10/30 03:21:01;;;;;;;21.40;14.77;;;;;;;11.00;100.00;102080.84;2064551;28;20194;-61
2022/10/30 03:22:01;;;;;;;15.80;13.00;;;;;;;10.40;100.00;101992.22;2064065;28;20256;-61
2022/10/30 03:23:02;;;;;;;17.03;12.30;;;;;;;10.94;100.00;102091.56;2065996;28;20511;-61
2022/10/30 03:24:02;;;;;;;15.97;12.60;;;;;;;10.95;100.00;102084.00;2065346;28;20217;-61
2022/10/30 03:25:03;;;;;;;15.97;13.00;;;;;;;10.58;100.00;102023.50;2065978;28;20186;-60
2022/10/30 03:26:04;;;;;;;18.77;13.43;;;;;;;10.98;100.00;102084.03;2065553;28;20200;-61
2022/10/30 03:27:05;;;;;;;15.87;12.47;;;;;;;10.85;100.00;102060.66;2065880;28;20433;-62
2022/10/30 03:28:05;;;;;;;18.80;12.50;;;;;;;10.95;100.00;102084.81;2063667;28;20656;-61
2022/10/30 03:29:06;;;;;;;17.17;12.43;;;;;;;10.96;100.00;102088.41;2064770;28;20252;-61
2022/10/30 03:30:07;;;;;;;19.87;16.87;;;;;;;10.98;100.00;102083.22;2063572;28;20284;-61
2022/10/30 03:31:11;;;;;;;19.07;17.07;;;;;;;10.99;100.00;102101.44;2064156;28;20195;-61
2022/10/30 03:32:11;;;;;;;20.83;15.97;;;;;;;10.99;100.00;102091.16;2065650;28;20943;-61
2022/10/30 03:33:12;;;;;;;17.13;13.77;;;;;;;10.99;100.00;102096.69;2065780;28;20797;-61
2022/10/30 03:34:13;;;;;;;19.07;14.20;;;;;;;10.98;100.00;102095.13;2064705;28;20198;-60
2022/10/30 03:35:13;;;;;;;17.33;15.40;;;;;;;11.00;100.00;102084.41;2058340;28;20675;-61
2022/10/30 03:36:14;;;;;;;18.33;15.57;;;;;;;10.94;100.00;102080.47;2060035;28;20195;-61
2022/10/30 03:37:15;;;;;;;21.00;15.67;;;;;;;10.96;100.00;102085.63;2061833;28;20195;-61
2022/10/30 03:38:15;;;;;;;21.30;16.07;;;;;;;10.92;100.00;102076.50;2064846;28;20502;-61
2022/10/30 03:39:15;;;;;;;19.43;16.70;;;;;;;10.95;100.00;102084.81;2063179;28;20695;-61
2022/10/30 03:40:16;;;;;;;21.77;16.30;;;;;;;11.00;100.00;102089.16;2063363;28;20190;-60
2022/10/30 03:41:16;;;;;;;18.90;15.93;;;;;;;11.03;100.00;102083.63;2065757;28;20273;-60
2022/10/30 03:42:17;;;;;;;17.43;15.40;;;;;;;11.07;100.00;102086.38;2065589;28;20205;-60
2022/10/30 03:43:18;;;;;;;17.23;15.43;;;;;;;11.06;100.00;102085.56;2065833;28;20190;-60
2022/10/30 03:44:18;;;;;;;19.63;16.43;;;;;;;11.06;100.00;102082.81;2065248;28;20194;-61
2022/10/30 03:45:19;;;;;;;17.93;16.03;;;;;;;11.11;100.00;102087.13;2064307;28;20441;-61
2022/10/30 03:46:19;;;;;;;17.70;14.87;;;;;;;11.09;100.00;102079.25;2064426;28;20292;-61
2022/10/30 03:47:19;;;;;;;15.57;11.73;;;;;;;11.17;100.00;102086.34;2065668;28;20619;-61
2022/10/30 03:48:22;;;;;;;18.50;12.70;;;;;;;10.62;100.00;101999.34;2065441;28;20237;-60
2022/10/30 03:49:23;;;;;;;16.80;13.87;;;;;;;11.11;100.00;102082.38;2064980;28;20179;-61
2022/10/30 03:50:23;;;;;;;14.10;12.70;;;;;;;11.18;100.00;102087.13;2065267;28;20461;-61
2022/10/30 03:51:23;;;;;;;15.43;12.50;;;;;;;11.12;100.00;102066.56;2065561;28;20234;-60
2022/10/30 03:52:24;;;;;;;16.10;12.07;;;;;;;11.21;100.00;102078.78;2065502;28;20816;-60
2022/10/30 03:53:27;;;;;;;17.13;12.53;;;;;;;11.24;100.00;102080.78;2065777;28;20192;-61
2022/10/30 03:54:27;;;;;;;18.90;13.17;;;;;;;11.18;100.00;102068.50;2062772;28;20659;-61
2022/10/30 03:55:28;;;;;;;14.87;12.13;;;;;;;11.23;100.00;102068.06;2065447;28;20866;-60
2022/10/30 03:56:28;;;;;;;15.70;12.53;;;;;;;11.24;100.00;102063.31;2065147;28;20178;-61
2022/10/30 03:57:29;;;;;;;14.60;11.93;;;;;;;11.20;100.00;102048.66;2065539;28;20212;-60
2022/10/30 03:58:29;;;;;;;19.10;12.13;;;;;;;10.86;100.00;102011.56;2065402;28;20222;-60
2022/10/30 03:59:30;;;;;;;17.13;11.90;;;;;;;11.24;100.00;102064.13;2065345;28;20262;-60
2022/10/30 04:00:31;;;;;;;16.77;12.67;;;;;;;11.25;100.00;102060.16;2065626;28;20626;-60
2022/10/30 04:01:31;;;;;;;14.37;12.17;;;;;;;11.22;100.00;102054.63;2063968;28;20273;-60
2022/10/30 04:02:31;;;;;;;14.30;12.00;;;;;;;11.20;100.00;102073.63;2062935;28;20230;-60
2022/10/30 04:03:32;;;;;;;15.50;12.00;;;;;;;11.15;100.00;102062.94;2065276;28;20569;-60
2022/10/30 04:04:32;;;;;;;15.23;11.83;;;;;;;11.17;100.00;102066.91;2065141;28;20225;-60
2022/10/30 04:05:33;;;;;;;17.57;12.27;;;;;;;11.20;100.00;102074.44;2065480;28;20193;-61
2022/10/30 04:06:34;;;;;;;14.80;11.83;;;;;;;11.22;100.00;102072.03;2065326;28;20215;-60
2022/10/30 04:07:34;;;;;;;13.90;12.27;;;;;;;11.24;100.00;102061.34;2064881;28;20421;-61
2022/10/30 04:08:35;;;;;;;14.93;12.83;;;;;;;11.22;100.00;102052.63;2065342;28;20197;-61
2022/10/30 04:09:35;;;;;;;16.80;12.70;;;;;;;11.24;100.00;102061.34;2065457;28;20192;-61
2022/10/30 04:10:36;;;;;;;15.53;13.00;;;;;;;11.24;100.00;102061.34;2065202;28;20287;-60
2022/10/30 04:11:36;;;;;;;17.93;12.73;;;;;;;11.15;100.00;102040.75;2063785;28;20668;-61
2022/10/30 04:12:37;;;;;;;16.27;12.27;;;;;;;11.28;100.00;102055.78;2063702;28;20249;-61
2022/10/30 04:13:38;;;;;;;13.93;12.50;;;;;;;11.25;100.00;102064.91;2065701;28;20249;-61
2022/10/30 04:14:38;;;;;;;14.70;11.83;;;;;;;11.19;100.00;102053.44;2065010;28;20198;-61
2022/10/30 04:15:39;;;;;;;13.90;12.50;;;;;;;10.46;100.00;101940.75;2064841;28;20193;-60
2022/10/30 04:16:39;;;;;;;15.53;12.63;;;;;;;11.25;100.00;102056.56;2064617;28;20683;-60
2022/10/30 04:17:40;;;;;;;17.47;12.57;;;;;;;11.22;100.00;102062.94;2065579;28;20207;-60
2022/10/30 04:18:41;;;;;;;16.80;12.87;;;;;;;11.26;100.00;102064.50;2063449;28;20194;-61
2022/10/30 04:19:41;;;;;;;18.90;12.80;;;;;;;11.29;100.00;102057.38;2064776;28;20269;-61
2022/10/30 04:20:43;;;;;;;16.67;11.57;;;;;;;10.27;100.00;101905.19;2064999;28;20434;-61
2022/10/30 04:21:46;;;;;;;14.20;12.70;;;;;;;11.15;100.00;102060.97;2065474;28;20202;-60
2022/10/30 04:22:47;;;;;;;16.10;12.87;;;;;;;11.16;100.00;102059.78;2065499;28;20478;-61
2022/10/30 04:23:48;;;;;;;14.40;11.67;;;;;;;10.27;100.00;101915.47;2065501;28;20449;-61
2022/10/30 04:24:48;;;;;;;14.87;12.17;;;;;;;11.20;100.00;102057.78;2064304;28;20194;-61
2022/10/30 04:25:49;;;;;;;16.07;12.23;;;;;;;11.21;100.00;102056.59;2063904;28;20832;-60
2022/10/30 04:26:49;;;;;;;16.93;12.27;;;;;;;11.23;100.00;102051.41;2064858;28;20198;-61
2022/10/30 04:27:51;;;;;;;16.83;12.40;;;;;;;11.24;100.00;102061.34;2064629;28;20317;-60
2022/10/30 04:28:52;;;;;;;15.13;11.77;;;;;;;11.22;100.00;102051.84;2065333;28;20194;-61
2022/10/30 04:29:52;;;;;;;14.80;11.60;;;;;;;11.20;100.00;102055.03;2065204;28;20472;-61
2022/10/30 04:30:53;;;;;;;14.73;11.50;;;;;;;11.12;100.00;102061.00;2065314;28;20571;-61
2022/10/30 04:31:53;;;;;;;14.00;11.43;;;;;;;11.13;100.00;102057.03;2064234;28;20210;-60
2022/10/30 04:32:55;;;;;;;15.17;11.97;;;;;;;11.14;100.00;102053.84;2064130;28;20198;-60
2022/10/30 04:33:55;;;;;;;15.87;11.97;;;;;;;11.14;100.00;102053.06;2064921;28;20192;-60
2022/10/30 04:34:55;;;;;;;16.07;12.33;;;;;;;10.69;100.00;101990.19;2064864;28;21018;-60
2022/10/30 04:35:56;;;;;;;14.93;12.47;;;;;;;11.15;100.00;102052.66;2065002;28;20193;-61
2022/10/30 04:36:56;;;;;;;18.00;12.20;;;;;;;11.14;100.00;102055.81;2064845;28;20214;-61
2022/10/30 04:38:03;;;;;;;22.10;13.00;;;;;;;11.15;100.00;102060.19;2065287;28;20659;-61
2022/10/30 04:39:03;;;;;;;27.00;14.47;;;;;;;11.01;100.00;102049.91;2065032;28;20676;-61
2022/10/30 04:40:04;;;;;;;26.43;14.30;;;;;;;11.07;100.00;102059.41;2065187;28;20956;-60
2022/10/30 04:41:05;;;;;;;18.40;12.67;;;;;;;11.00;100.00;102042.81;2064962;28;20194;-61
2022/10/30 04:42:05;;;;;;;23.60;13.60;;;;;;;11.06;100.00;102057.84;2063890;28;20433;-61
2022/10/30 04:43:07;;;;;;;26.73;14.40;;;;;;;11.04;100.00;102054.69;2065057;28;20644;-61
2022/10/30 04:44:07;;;;;;;19.70;14.07;;;;;;;11.04;100.00;102059.44;2064835;28;20744;-60